sensor_id;sensor_type;location;lat;lon;timestamp;pressure;altitude;pressure_sealevel;temperature;humidity
14800;BME280;7491;57.750;11.970;2024-03-07T00:00:41;78733.16;;;-142.11;100.00
14800;BME280;7491;57.750;11.970;2024-03-07T00:03:08;78749.47;;;-142.11;100.00
14800;BME280;7491;57.750;11.970;2024-03-07T00:05:35;78759.66;;;-142.11;100.00
14800;BME280;7491;57.750;11.970;2024-03-07T00:08:01;78753.53;;;-142.11;100.00
14800;BME280;7491;57.750;11.970;2024-03-07T00:10:30;78741.31;;;-142.11;100.00
14800;BME280;7491;57.750;11.970;2024-03-07T00:12:57;78737.22;;;-142.11;100.00
14800;BME280;7491;57.750;11.970;2024-03-07T00:15:23;78771.91;;;-142.11;100.00
14800;BME280;7491;57.750;11.970;2024-03-07T00:17:50;78757.63;;;-142.11;100.00
14800;BME280;7491;57.750;11.970;2024-03-07T00:20:17;78780.06;;;-142.11;100.00
14800;BME280;7491;57.750;11.970;2024-03-07T00:22:44;78769.84;;;-142.11;100.00
14800;BME280;7491;57.750;11.970;2024-03-07T00:25:11;78778.03;;;-142.11;100.00
14800;BME280;7491;57.750;11.970;2024-03-07T00:27:41;78761.69;;;-142.11;100.00
14800;BME280;7491;57.750;11.970;2024-03-07T00:30:10;78761.69;;;-142.11;100.00
14800;BME280;7491;57.750;11.970;2024-03-07T00:32:38;78755.59;;;-142.11;100.00
14800;BME280;7491;57.750;11.970;2024-03-07T00:35:06;78771.91;;;-142.11;100.00
14800;BME280;7491;57.750;11.970;2024-03-07T00:37:34;78796.38;;;-142.11;100.00
14800;BME280;7491;57.750;11.970;2024-03-07T00:40:01;78790.25;;;-142.11;100.00
14800;BME280;7491;57.750;11.970;2024-03-07T00:42:28;78778.03;;;-142.11;100.00
14800;BME280;7491;57.750;11.970;2024-03-07T00:44:56;78773.94;;;-142.11;100.00
14800;BME280;7491;57.750;11.970;2024-03-07T00:47:23;78767.81;;;-142.11;100.00
14800;BME280;7491;57.750;11.970;2024-03-07T00:49:50;78763.75;;;-142.11;100.00
14800;BME280;7491;57.750;11.970;2024-03-07T00:52:16;78765.78;;;-142.11;100.00
14800;BME280;7491;57.750;11.970;2024-03-07T00:54:43;78757.63;;;-142.11;100.00
14800;BME280;7491;57.750;11.970;2024-03-07T00:57:10;78749.47;;;-142.11;100.00
14800;BME280;7491;57.750;11.970;2024-03-07T00:59:36;78749.47;;;-142.11;100.00
14800;BME280;7491;57.750;11.970;2024-03-07T01:02:05;78765.78;;;-142.11;100.00
14800;BME280;7491;57.750;11.970;2024-03-07T01:04:32;78769.84;;;-142.11;100.00
14800;BME280;7491;57.750;11.970;2024-03-07T01:06:59;78786.19;;;-142.11;100.00
14800;BME280;7491;57.750;11.970;2024-03-07T01:09:26;78769.84;;;-142.11;100.00
14800;BME280;7491;57.750;11.970;2024-03-07T01:11:54;78786.19;;;-142.11;100.00
14800;BME280;7491;57.750;11.970;2024-03-07T01:14:21;78773.94;;;-142.11;100.00
14800;BME280;7491;57.750;11.970;2024-03-07T01:16:48;78769.84;;;-142.11;100.00
14800;BME280;7491;57.750;11.970;2024-03-07T01:19:16;78771.91;;;-142.11;100.00
14800;BME280;7491;57.750;11.970;2024-03-07T01:21:43;78780.06;;;-142.11;100.00
14800;BME280;7491;57.750;11.970;2024-03-07T01:24:10;78771.91;;;-142.11;100.00
14800;BME280;7491;57.750;11.970;2024-03-07T01:26:37;78773.94;;;-142.11;100.00
14800;BME280;7491;57.750;11.970;2024-03-07T01:29:04;78780.06;;;-142.11;100.00
14800;BME280;7491;57.750;11.970;2024-03-07T01:31:32;78800.47;;;-142.11;100.00
14800;BME280;7491;57.750;11.970;2024-03-07T01:33:59;78782.09;;;-142.11;100.00
14800;BME280;7491;57.750;11.970;2024-03-07T01:36:27;78794.34;;;-142.11;100.00
14800;BME280;7491;57.750;11.970;2024-03-07T01:38:54;78792.31;;;-142.11;100.00
14800;BME280;7491;57.750;11.970;2024-03-07T01:41:20;78784.16;;;-142.11;100.00
14800;BME280;7491;57.750;11.970;2024-03-07T01:43:47;78794.34;;;-142.11;100.00
14800;BME280;7491;57.750;11.970;2024-03-07T01:46:14;78790.25;;;-142.11;100.00
14800;BME280;7491;57.750;11.970;2024-03-07T01:48:41;78792.31;;;-142.11;100.00
14800;BME280;7491;57.750;11.970;2024-03-07T01:51:08;78804.53;;;-142.11;100.00
14800;BME280;7491;57.750;11.970;2024-03-07T01:53:36;78796.38;;;-142.11;100.00
14800;BME280;7491;57.750;11.970;2024-03-07T01:56:04;78808.63;;;-142.11;100.00
14800;BME280;7491;57.750;11.970;2024-03-07T01:58:31;78806.59;;;-142.11;100.00
14800;BME280;7491;57.750;11.970;2024-03-07T02:00:58;78818.81;;;-142.11;100.00
14800;BME280;7491;57.750;11.970;2024-03-07T02:03:25;78818.81;;;-142.11;100.00
14800;BME280;7491;57.750;11.970;2024-03-07T02:05:52;78810.66;;;-142.11;100.00
14800;BME280;7491;57.750;11.970;2024-03-07T02:08:18;78800.47;;;-142.11;100.00
14800;BME280;7491;57.750;11.970;2024-03-07T02:10:47;78804.53;;;-142.11;100.00
14800;BME280;7491;57.750;11.970;2024-03-07T02:13:14;78800.47;;;-142.11;100.00
14800;BME280;7491;57.750;11.970;2024-03-07T02:15:41;78816.78;;;-142.11;100.00
14800;BME280;7491;57.750;11.970;2024-03-07T02:18:09;78808.63;;;-142.11;100.00
14800;BME280;7491;57.750;11.970;2024-03-07T02:20:35;78810.66;;;-142.11;100.00
14800;BME280;7491;57.750;11.970;2024-03-07T02:23:04;78808.63;;;-142.11;100.00
14800;BME280;7491;57.750;11.970;2024-03-07T02:25:31;78818.81;;;-142.11;100.00
14800;BME280;7491;57.750;11.970;2024-03-07T02:27:57;78824.94;;;-142.11;100.00
14800;BME280;7491;57.750;11.970;2024-03-07T02:30:24;78820.88;;;-142.11;100.00
14800;BME280;7491;57.750;11.970;2024-03-07T02:32:51;78829.03;;;-142.11;100.00
14800;BME280;7491;57.750;11.970;2024-03-07T02:35:20;78831.06;;;-142.11;100.00
14800;BME280;7491;57.750;11.970;2024-03-07T02:37:47;78814.75;;;-142.11;100.00
14800;BME280;7491;57.750;11.970;2024-03-07T02:40:15;78826.97;;;-142.11;100.00
14800;BME280;7491;57.750;11.970;2024-03-07T02:42:42;78816.78;;;-142.11;100.00
14800;BME280;7491;57.750;11.970;2024-03-07T02:45:09;78822.91;;;-142.11;100.00
14800;BME280;7491;57.750;11.970;2024-03-07T02:47:40;78812.69;;;-142.11;100.00
14800;BME280;7491;57.750;11.970;2024-03-07T02:50:09;78818.81;;;-142.11;100.00
14800;BME280;7491;57.750;11.970;2024-03-07T02:52:36;78820.88;;;-142.11;100.00
14800;BME280;7491;57.750;11.970;2024-03-07T02:55:05;78835.16;;;-142.11;100.00
14800;BME280;7491;57.750;11.970;2024-03-07T02:57:33;78837.19;;;-142.11;100.00
14800;BME280;7491;57.750;11.970;2024-03-07T02:59:59;78833.09;;;-142.11;100.00
14800;BME280;7491;57.750;11.970;2024-03-07T03:02:26;78812.69;;;-142.11;100.00
14800;BME280;7491;57.750;11.970;2024-03-07T03:04:53;78853.50;;;-142.11;100.00
14800;BME280;7491;57.750;11.970;2024-03-07T03:07:20;78831.06;;;-142.11;100.00
14800;BME280;7491;57.750;11.970;2024-03-07T03:09:47;78851.47;;;-142.11;100.00
14800;BME280;7491;57.750;11.970;2024-03-07T03:12:14;78851.47;;;-142.11;100.00
14800;BME280;7491;57.750;11.970;2024-03-07T03:14:42;78837.19;;;-142.11;100.00
14800;BME280;7491;57.750;11.970;2024-03-07T03:17:09;78859.63;;;-142.11;100.00
14800;BME280;7491;57.750;11.970;2024-03-07T03:19:36;78847.38;;;-142.11;100.00
14800;BME280;7491;57.750;11.970;2024-03-07T03:22:03;78867.78;;;-142.11;100.00
14800;BME280;7491;57.750;11.970;2024-03-07T03:24:29;78863.72;;;-142.11;100.00
14800;BME280;7491;57.750;11.970;2024-03-07T03:26:56;78869.81;;;-142.11;100.00
14800;BME280;7491;57.750;11.970;2024-03-07T03:29:23;78857.59;;;-142.11;100.00
14800;BME280;7491;57.750;11.970;2024-03-07T03:31:51;78859.63;;;-142.11;100.00
14800;BME280;7491;57.750;11.970;2024-03-07T03:34:18;78894.31;;;-142.11;100.00
14800;BME280;7491;57.750;11.970;2024-03-07T03:36:44;78880.03;;;-142.11;100.00
14800;BME280;7491;57.750;11.970;2024-03-07T03:39:11;78869.81;;;-142.11;100.00
14800;BME280;7491;57.750;11.970;2024-03-07T03:41:38;78869.81;;;-142.11;100.00
14800;BME280;7491;57.750;11.970;2024-03-07T03:44:05;78812.69;;;-142.11;100.00
14800;BME280;7491;57.750;11.970;2024-03-07T03:46:32;78796.38;;;-142.11;100.00
14800;BME280;7491;57.750;11.970;2024-03-07T03:49:00;78804.53;;;-142.11;100.00
14800;BME280;7491;57.750;11.970;2024-03-07T03:51:27;78808.63;;;-142.11;100.00
14800;BME280;7491;57.750;11.970;2024-03-07T03:53:53;78818.81;;;-142.11;100.00
14800;BME280;7491;57.750;11.970;2024-03-07T03:56:20;78812.69;;;-142.11;100.00
14800;BME280;7491;57.750;11.970;2024-03-07T03:58:47;78794.34;;;-142.11;100.00
14800;BME280;7491;57.750;11.970;2024-03-07T04:01:13;78786.19;;;-142.11;100.00
14800;BME280;7491;57.750;11.970;2024-03-07T04:03:41;78800.47;;;-142.11;100.00
14800;BME280;7491;57.750;11.970;2024-03-07T04:06:09;78802.50;;;-142.11;100.00
14800;BME280;7491;57.750;11.970;2024-03-07T04:08:36;78792.31;;;-142.11;100.00
14800;BME280;7491;57.750;11.970;2024-03-07T04:11:03;78796.38;;;-142.11;100.00
14800;BME280;7491;57.750;11.970;2024-03-07T04:13:30;78802.50;;;-142.11;100.00
14800;BME280;7491;57.750;11.970;2024-03-07T04:15:57;78794.34;;;-142.11;100.00
14800;BME280;7491;57.750;11.970;2024-03-07T04:18:24;78800.47;;;-142.11;100.00
14800;BME280;7491;57.750;11.970;2024-03-07T04:20:51;78800.47;;;-142.11;100.00
14800;BME280;7491;57.750;11.970;2024-03-07T04:23:20;78810.66;;;-142.11;100.00
14800;BME280;7491;57.750;11.970;2024-03-07T04:25:47;78804.53;;;-142.11;100.00
14800;BME280;7491;57.750;11.970;2024-03-07T04:28:14;78800.47;;;-142.11;100.00
14800;BME280;7491;57.750;11.970;2024-03-07T04:30:40;78804.53;;;-142.11;100.00
14800;BME280;7491;57.750;11.970;2024-03-07T04:33:07;78818.81;;;-142.11;100.00
14800;BME280;7491;57.750;11.970;2024-03-07T04:35:34;78802.50;;;-142.11;100.00
14800;BME280;7491;57.750;11.970;2024-03-07T04:38:01;78798.41;;;-142.11;100.00
14800;BME280;7491;57.750;11.970;2024-03-07T04:40:29;78800.47;;;-142.11;100.00
14800;BME280;7491;57.750;11.970;2024-03-07T04:42:56;78824.94;;;-142.11;100.00
14800;BME280;7491;57.750;11.970;2024-03-07T04:45:23;78849.44;;;-142.11;100.00
14800;BME280;7491;57.750;11.970;2024-03-07T04:47:50;78853.50;;;-142.11;100.00
14800;BME280;7491;57.750;11.970;2024-03-07T04:50:16;78829.03;;;-142.11;100.00
14800;BME280;7491;57.750;11.970;2024-03-07T04:52:43;78826.97;;;-142.11;100.00
14800;BME280;7491;57.750;11.970;2024-03-07T04:55:11;78820.88;;;-142.11;100.00
14800;BME280;7491;57.750;11.970;2024-03-07T04:57:40;78826.97;;;-142.11;100.00
14800;BME280;7491;57.750;11.970;2024-03-07T05:00:07;78843.31;;;-142.11;100.00
14800;BME280;7491;57.750;11.970;2024-03-07T05:02:38;78845.34;;;-142.11;100.00
14800;BME280;7491;57.750;11.970;2024-03-07T05:05:05;78826.97;;;-142.11;100.00
14800;BME280;7491;57.750;11.970;2024-03-07T05:07:32;78826.97;;;-142.11;100.00
14800;BME280;7491;57.750;11.970;2024-03-07T05:10:01;78835.16;;;-142.11;100.00
14800;BME280;7491;57.750;11.970;2024-03-07T05:12:28;78859.63;;;-142.11;100.00
14800;BME280;7491;57.750;11.970;2024-03-07T05:14:56;78865.75;;;-142.11;100.00
14800;BME280;7491;57.750;11.970;2024-03-07T05:17:23;78882.06;;;-142.11;100.00
14800;BME280;7491;57.750;11.970;2024-03-07T05:19:50;78886.16;;;-142.11;100.00
14800;BME280;7491;57.750;11.970;2024-03-07T05:22:16;78873.91;;;-142.11;100.00
14800;BME280;7491;57.750;11.970;2024-03-07T05:24:45;78886.16;;;-142.11;100.00
14800;BME280;7491;57.750;11.970;2024-03-07T05:27:13;78867.78;;;-142.11;100.00
14800;BME280;7491;57.750;11.970;2024-03-07T05:29:40;78871.88;;;-142.11;100.00
14800;BME280;7491;57.750;11.970;2024-03-07T05:32:22;78873.91;;;-142.11;100.00
14800;BME280;7491;57.750;11.970;2024-03-07T05:34:49;78863.72;;;-142.11;100.00
14800;BME280;7491;57.750;11.970;2024-03-07T05:37:16;78861.66;;;-142.11;100.00
14800;BME280;7491;57.750;11.970;2024-03-07T05:39:45;78859.63;;;-142.11;100.00
14800;BME280;7491;57.750;11.970;2024-03-07T05:42:12;78859.63;;;-142.11;100.00
14800;BME280;7491;57.750;11.970;2024-03-07T05:44:40;78863.72;;;-142.11;100.00
14800;BME280;7491;57.750;11.970;2024-03-07T05:47:08;78855.53;;;-142.11;100.00
14800;BME280;7491;57.750;11.970;2024-03-07T05:49:36;78859.63;;;-142.11;100.00
14800;BME280;7491;57.750;11.970;2024-03-07T05:52:03;78853.50;;;-142.11;100.00
14800;BME280;7491;57.750;11.970;2024-03-07T05:54:31;78859.63;;;-142.11;100.00
14800;BME280;7491;57.750;11.970;2024-03-07T05:56:56;78855.53;;;-142.11;100.00
14800;BME280;7491;57.750;11.970;2024-03-07T05:59:23;78849.44;;;-142.11;100.00
14800;BME280;7491;57.750;11.970;2024-03-07T06:01:50;78849.44;;;-142.11;100.00
14800;BME280;7491;57.750;11.970;2024-03-07T06:04:17;78847.38;;;-142.11;100.00
14800;BME280;7491;57.750;11.970;2024-03-07T06:06:45;78796.38;;;-142.11;100.00
14800;BME280;7491;57.750;11.970;2024-03-07T06:09:13;78737.22;;;-142.11;100.00
14800;BME280;7491;57.750;11.970;2024-03-07T06:11:46;78731.09;;;-142.11;100.00
14800;BME280;7491;57.750;11.970;2024-03-07T06:14:12;78690.31;;;-142.11;100.00
14800;BME280;7491;57.750;11.970;2024-03-07T06:16:40;78586.25;;;-142.11;100.00
14800;BME280;7491;57.750;11.970;2024-03-07T06:19:07;78504.66;;;-142.11;100.00
14800;BME280;7491;57.750;11.970;2024-03-07T06:21:36;78547.50;;;-142.11;100.00
14800;BME280;7491;57.750;11.970;2024-03-07T06:24:06;78625.03;;;-142.11;100.00
14800;BME280;7491;57.750;11.970;2024-03-07T06:26:35;78702.53;;;-142.11;100.00
14800;BME280;7491;57.750;11.970;2024-03-07T06:29:11;78765.78;;;-142.11;100.00
14800;BME280;7491;57.750;11.970;2024-03-07T06:31:38;78778.03;;;-142.11;100.00
14800;BME280;7491;57.750;11.970;2024-03-07T06:34:05;78749.47;;;-142.11;100.00
14800;BME280;7491;57.750;11.970;2024-03-07T06:36:33;78765.78;;;-142.11;100.00
14800;BME280;7491;57.750;11.970;2024-03-07T06:39:00;78767.81;;;-142.11;100.00
14800;BME280;7491;57.750;11.970;2024-03-07T06:41:29;78771.91;;;-142.11;100.00
14800;BME280;7491;57.750;11.970;2024-03-07T06:43:56;78743.34;;;-142.11;100.00
14800;BME280;7491;57.750;11.970;2024-03-07T06:46:23;78727.03;;;-142.11;100.00
14800;BME280;7491;57.750;11.970;2024-03-07T06:48:50;78741.31;;;-142.11;100.00
14800;BME280;7491;57.750;11.970;2024-03-07T06:51:17;78741.31;;;-142.11;100.00
14800;BME280;7491;57.750;11.970;2024-03-07T06:53:45;78737.22;;;-142.11;100.00
14800;BME280;7491;57.750;11.970;2024-03-07T06:56:12;78739.25;;;-142.11;100.00
14800;BME280;7491;57.750;11.970;2024-03-07T06:58:40;78743.34;;;-142.11;100.00
14800;BME280;7491;57.750;11.970;2024-03-07T07:01:07;78741.31;;;-142.11;100.00
14800;BME280;7491;57.750;11.970;2024-03-07T07:03:37;78743.34;;;-142.11;100.00
14800;BME280;7491;57.750;11.970;2024-03-07T07:06:04;78720.91;;;-142.11;100.00
14800;BME280;7491;57.750;11.970;2024-03-07T07:08:32;78735.19;;;-142.11;100.00
14800;BME280;7491;57.750;11.970;2024-03-07T07:10:59;78733.16;;;-142.11;100.00
14800;BME280;7491;57.750;11.970;2024-03-07T07:13:26;78729.06;;;-142.11;100.00
14800;BME280;7491;57.750;11.970;2024-03-07T07:15:54;78735.19;;;-142.11;100.00
14800;BME280;7491;57.750;11.970;2024-03-07T07:18:20;78739.25;;;-142.11;100.00
14800;BME280;7491;57.750;11.970;2024-03-07T07:20:49;78743.34;;;-142.11;100.00
14800;BME280;7491;57.750;11.970;2024-03-07T07:23:17;78745.38;;;-142.11;100.00
14800;BME280;7491;57.750;11.970;2024-03-07T07:25:44;78714.78;;;-142.11;100.00
14800;BME280;7491;57.750;11.970;2024-03-07T07:28:11;78718.84;;;-142.11;100.00
14800;BME280;7491;57.750;11.970;2024-03-07T07:30:38;78714.78;;;-142.11;100.00
14800;BME280;7491;57.750;11.970;2024-03-07T07:33:06;78694.38;;;-142.11;100.00
14800;BME280;7491;57.750;11.970;2024-03-07T07:35:33;78673.97;;;-142.11;100.00
14800;BME280;7491;57.750;11.970;2024-03-07T07:38:00;78704.59;;;-142.11;100.00
14800;BME280;7491;57.750;11.970;2024-03-07T07:40:27;78684.19;;;-142.11;100.00
14800;BME280;7491;57.750;11.970;2024-03-07T07:42:56;78698.47;;;-142.11;100.00
14800;BME280;7491;57.750;11.970;2024-03-07T07:45:23;78676.03;;;-142.11;100.00
14800;BME280;7491;57.750;11.970;2024-03-07T07:47:51;78673.97;;;-142.11;100.00
14800;BME280;7491;57.750;11.970;2024-03-07T07:50:21;78678.06;;;-142.11;100.00
14800;BME280;7491;57.750;11.970;2024-03-07T07:52:49;78669.91;;;-142.11;100.00
14800;BME280;7491;57.750;11.970;2024-03-07T07:55:19;78663.78;;;-142.11;100.00
14800;BME280;7491;57.750;11.970;2024-03-07T07:57:47;78649.50;;;-142.11;100.00
14800;BME280;7491;57.750;11.970;2024-03-07T08:00:16;78653.59;;;-142.11;100.00
14800;BME280;7491;57.750;11.970;2024-03-07T08:02:52;78625.03;;;-142.11;100.00
14800;BME280;7491;57.750;11.970;2024-03-07T08:05:21;78620.94;;;-142.11;100.00
14800;BME280;7491;57.750;11.970;2024-03-07T08:07:49;78594.41;;;-142.11;100.00
14800;BME280;7491;57.750;11.970;2024-03-07T08:10:17;78586.25;;;-142.11;100.00
14800;BME280;7491;57.750;11.970;2024-03-07T08:12:43;78571.97;;;-142.11;100.00
14800;BME280;7491;57.750;11.970;2024-03-07T08:15:11;78563.81;;;-142.11;100.00
14800;BME280;7491;57.750;11.970;2024-03-07T08:17:42;78535.25;;;-142.11;100.00
14800;BME280;7491;57.750;11.970;2024-03-07T08:20:12;78535.25;;;-142.11;100.00
14800;BME280;7491;57.750;11.970;2024-03-07T08:22:42;78510.78;;;-142.11;100.00
14800;BME280;7491;57.750;11.970;2024-03-07T08:25:09;78512.81;;;-142.11;100.00
14800;BME280;7491;57.750;11.970;2024-03-07T08:27:38;78506.72;;;-142.11;100.00
14800;BME280;7491;57.750;11.970;2024-03-07T08:30:07;78486.31;;;-142.11;100.00
14800;BME280;7491;57.750;11.970;2024-03-07T08:32:38;78474.06;;;-142.11;100.00
14800;BME280;7491;57.750;11.970;2024-03-07T08:35:06;78472.03;;;-142.11;100.00
14800;BME280;7491;57.750;11.970;2024-03-07T08:37:35;78443.47;;;-142.11;100.00
14800;BME280;7491;57.750;11.970;2024-03-07T08:40:05;78437.34;;;-142.11;100.00
14800;BME280;7491;57.750;11.970;2024-03-07T08:42:35;78431.22;;;-142.11;100.00
14800;BME280;7491;57.750;11.970;2024-03-07T08:45:04;78421.03;;;-142.11;100.00
14800;BME280;7491;57.750;11.970;2024-03-07T08:47:31;78419.00;;;-142.11;100.00
14800;BME280;7491;57.750;11.970;2024-03-07T08:49:58;78410.84;;;-142.11;100.00
14800;BME280;7491;57.750;11.970;2024-03-07T08:52:25;78404.72;;;-142.11;100.00
14800;BME280;7491;57.750;11.970;2024-03-07T08:54:53;78394.50;;;-142.11;100.00
14800;BME280;7491;57.750;11.970;2024-03-07T08:57:21;78382.28;;;-142.11;100.00
14800;BME280;7491;57.750;11.970;2024-03-07T08:59:48;78361.88;;;-142.11;100.00
14800;BME280;7491;57.750;11.970;2024-03-07T09:02:15;78353.72;;;-142.11;100.00
14800;BME280;7491;57.750;11.970;2024-03-07T09:04:41;78353.72;;;-142.11;100.00
14800;BME280;7491;57.750;11.970;2024-03-07T09:07:08;78333.31;;;-142.11;100.00
14800;BME280;7491;57.750;11.970;2024-03-07T09:09:35;78343.53;;;-142.11;100.00
14800;BME280;7491;57.750;11.970;2024-03-07T09:12:02;78327.19;;;-142.11;100.00
14800;BME280;7491;57.750;11.970;2024-03-07T09:14:30;78302.72;;;-142.11;100.00
14800;BME280;7491;57.750;11.970;2024-03-07T09:16:57;78278.25;;;-142.11;100.00
14800;BME280;7491;57.750;11.970;2024-03-07T09:19:23;78272.13;;;-142.11;100.00
14800;BME280;7491;57.750;11.970;2024-03-07T09:21:51;78261.94;;;-142.11;100.00
14800;BME280;7491;57.750;11.970;2024-03-07T09:24:18;78247.66;;;-142.11;100.00
14800;BME280;7491;57.750;11.970;2024-03-07T09:26:47;78231.34;;;-142.11;100.00
14800;BME280;7491;57.750;11.970;2024-03-07T09:29:14;78229.28;;;-142.11;100.00
14800;BME280;7491;57.750;11.970;2024-03-07T09:31:42;78208.91;;;-142.11;100.00
14800;BME280;7491;57.750;11.970;2024-03-07T09:34:08;78204.81;;;-142.11;100.00
14800;BME280;7491;57.750;11.970;2024-03-07T09:36:35;78196.66;;;-142.11;100.00
14800;BME280;7491;57.750;11.970;2024-03-07T09:39:02;78192.56;;;-142.11;100.00
14800;BME280;7491;57.750;11.970;2024-03-07T09:41:29;78188.50;;;-142.11;100.00
14800;BME280;7491;57.750;11.970;2024-03-07T09:43:57;78166.06;;;-142.11;100.00
14800;BME280;7491;57.750;11.970;2024-03-07T09:46:25;78155.84;;;-142.11;100.00
14800;BME280;7491;57.750;11.970;2024-03-07T09:48:53;78145.66;;;-142.11;100.00
14800;BME280;7491;57.750;11.970;2024-03-07T09:51:20;78137.50;;;-142.11;100.00
14800;BME280;7491;57.750;11.970;2024-03-07T09:53:49;78131.38;;;-142.11;100.00
14800;BME280;7491;57.750;11.970;2024-03-07T09:56:20;78111.00;;;-142.11;100.00
14800;BME280;7491;57.750;11.970;2024-03-07T09:58:49;78098.75;;;-142.11;100.00
14800;BME280;7491;57.750;11.970;2024-03-07T10:01:20;78111.00;;;-142.11;100.00
14800;BME280;7491;57.750;11.970;2024-03-07T10:03:48;78096.72;;;-142.11;100.00
14800;BME280;7491;57.750;11.970;2024-03-07T10:06:18;78096.72;;;-142.11;100.00
14800;BME280;7491;57.750;11.970;2024-03-07T10:08:47;78078.34;;;-142.11;100.00
14800;BME280;7491;57.750;11.970;2024-03-07T10:11:14;78051.84;;;-142.11;100.00
14800;BME280;7491;57.750;11.970;2024-03-07T10:13:41;78064.06;;;-142.11;100.00
14800;BME280;7491;57.750;11.970;2024-03-07T10:16:08;78045.72;;;-142.11;100.00
14800;BME280;7491;57.750;11.970;2024-03-07T10:18:41;78019.22;;;-142.11;100.00
14800;BME280;7491;57.750;11.970;2024-03-07T10:21:08;78031.44;;;-142.11;100.00
14800;BME280;7491;57.750;11.970;2024-03-07T10:23:37;78021.25;;;-142.11;100.00
14800;BME280;7491;57.750;11.970;2024-03-07T10:26:05;78013.09;;;-142.11;100.00
14800;BME280;7491;57.750;11.970;2024-03-07T10:28:32;77996.78;;;-142.11;100.00
14800;BME280;7491;57.750;11.970;2024-03-07T10:31:00;77994.72;;;-142.11;100.00
14800;BME280;7491;57.750;11.970;2024-03-07T10:33:28;77996.78;;;-142.11;100.00
14800;BME280;7491;57.750;11.970;2024-03-07T10:35:58;77980.44;;;-142.11;100.00
14800;BME280;7491;57.750;11.970;2024-03-07T10:38:25;77960.06;;;-142.11;100.00
14800;BME280;7491;57.750;11.970;2024-03-07T10:40:54;77937.63;;;-142.11;100.00
14800;BME280;7491;57.750;11.970;2024-03-07T10:43:22;77935.59;;;-142.11;100.00
14800;BME280;7491;57.750;11.970;2024-03-07T10:45:51;77925.38;;;-142.11;100.00
14800;BME280;7491;57.750;11.970;2024-03-07T10:48:19;77929.47;;;-142.11;100.00
14800;BME280;7491;57.750;11.970;2024-03-07T10:50:52;77953.94;;;-142.11;100.00
14800;BME280;7491;57.750;11.970;2024-03-07T10:53:27;77911.09;;;-142.11;100.00
14800;BME280;7491;57.750;11.970;2024-03-07T10:56:14;77896.84;;;-142.11;100.00
14800;BME280;7491;57.750;11.970;2024-03-07T10:58:51;77888.69;;;-142.11;100.00
14800;BME280;7491;57.750;11.970;2024-03-07T11:01:23;77900.91;;;-142.11;100.00
14800;BME280;7491;57.750;11.970;2024-03-07T11:03:52;77884.59;;;-142.11;100.00
14800;BME280;7491;57.750;11.970;2024-03-07T11:06:23;77880.50;;;-142.11;100.00
14800;BME280;7491;57.750;11.970;2024-03-07T11:08:50;77870.31;;;-142.11;100.00
14800;BME280;7491;57.750;11.970;2024-03-07T11:11:19;77854.00;;;-142.11;100.00
14800;BME280;7491;57.750;11.970;2024-03-07T11:13:48;77856.03;;;-142.11;100.00
14800;BME280;7491;57.750;11.970;2024-03-07T11:16:16;77864.19;;;-142.11;100.00
14800;BME280;7491;57.750;11.970;2024-03-07T11:22:02;77864.19;;;-142.11;100.00
14800;BME280;7491;57.750;11.970;2024-03-07T11:24:39;77864.19;;;-142.11;100.00
14800;BME280;7491;57.750;11.970;2024-03-07T11:27:10;77835.66;;;-142.11;100.00
14800;BME280;7491;57.750;11.970;2024-03-07T11:29:40;77803.00;;;-142.11;100.00
14800;BME280;7491;57.750;11.970;2024-03-07T11:32:10;77800.97;;;-142.11;100.00
14800;BME280;7491;57.750;11.970;2024-03-07T11:34:38;77807.09;;;-142.11;100.00
14800;BME280;7491;57.750;11.970;2024-03-07T11:37:07;77807.09;;;-142.11;100.00
14800;BME280;7491;57.750;11.970;2024-03-07T11:39:43;77794.84;;;-142.11;100.00
14800;BME280;7491;57.750;11.970;2024-03-07T11:42:22;77800.97;;;-142.11;100.00
14800;BME280;7491;57.750;11.970;2024-03-07T11:44:50;77782.63;;;-142.11;100.00
14800;BME280;7491;57.750;11.970;2024-03-07T11:47:17;77770.38;;;-142.11;100.00
14800;BME280;7491;57.750;11.970;2024-03-07T11:49:44;77766.31;;;-142.11;100.00
14800;BME280;7491;57.750;11.970;2024-03-07T11:52:14;77776.50;;;-142.11;100.00
14800;BME280;7491;57.750;11.970;2024-03-07T11:54:42;77774.47;;;-142.11;100.00
14800;BME280;7491;57.750;11.970;2024-03-07T11:57:11;77790.78;;;-142.11;100.00
14800;BME280;7491;57.750;11.970;2024-03-07T11:59:41;77800.97;;;-142.11;100.00
14800;BME280;7491;57.750;11.970;2024-03-07T12:02:11;77778.53;;;-142.11;100.00
14800;BME280;7491;57.750;11.970;2024-03-07T12:04:39;77760.19;;;-142.11;100.00
14800;BME280;7491;57.750;11.970;2024-03-07T12:07:06;77754.06;;;-142.11;100.00
14800;BME280;7491;57.750;11.970;2024-03-07T12:09:36;77766.31;;;-142.11;100.00
14800;BME280;7491;57.750;11.970;2024-03-07T12:12:03;77760.19;;;-142.11;100.00
14800;BME280;7491;57.750;11.970;2024-03-07T12:14:30;77770.38;;;-142.11;100.00
14800;BME280;7491;57.750;11.970;2024-03-07T12:17:01;77774.47;;;-142.11;100.00
14800;BME280;7491;57.750;11.970;2024-03-07T12:19:30;77768.34;;;-142.11;100.00
14800;BME280;7491;57.750;11.970;2024-03-07T12:22:00;77772.41;;;-142.11;100.00
14800;BME280;7491;57.750;11.970;2024-03-07T12:24:26;77780.59;;;-142.11;100.00
14800;BME280;7491;57.750;11.970;2024-03-07T12:26:53;77786.69;;;-142.11;100.00
14800;BME280;7491;57.750;11.970;2024-03-07T12:29:30;77803.00;;;-142.11;100.00
14800;BME280;7491;57.750;11.970;2024-03-07T12:31:57;77798.94;;;-142.11;100.00
14800;BME280;7491;57.750;11.970;2024-03-07T12:34:25;77798.94;;;-142.11;100.00
14800;BME280;7491;57.750;11.970;2024-03-07T12:36:52;77778.53;;;-142.11;100.00